sensor_id;sensor_type;location;lat;lon;timestamp;P1;durP1;ratioP1;P2;durP2;ratioP2
69750;SDS011;57335;52.288;6.056;2022-08-03T00:01:39;8.48;;;2.78;;
69750;SDS011;57335;52.288;6.056;2022-08-03T00:04:06;9.05;;;2.60;;
69750;SDS011;57335;52.288;6.056;2022-08-03T00:06:34;6.43;;;2.10;;
69750;SDS011;57335;52.288;6.056;2022-08-03T00:09:06;6.88;;;2.20;;
69750;SDS011;57335;52.288;6.056;2022-08-03T00:11:33;7.65;;;2.08;;
69750;SDS011;57335;52.288;6.056;2022-08-03T00:14:00;8.68;;;3.00;;
69750;SDS011;57335;52.288;6.056;2022-08-03T00:16:27;8.35;;;2.90;;
69750;SDS011;57335;52.288;6.056;2022-08-03T00:18:53;7.50;;;2.78;;
69750;SDS011;57335;52.288;6.056;2022-08-03T00:21:20;7.50;;;2.38;;
69750;SDS011;57335;52.288;6.056;2022-08-03T00:23:46;8.60;;;2.40;;
69750;SDS011;57335;52.288;6.056;2022-08-03T00:26:18;10.15;;;2.47;;
69750;SDS011;57335;52.288;6.056;2022-08-03T00:28:45;7.60;;;2.60;;
69750;SDS011;57335;52.288;6.056;2022-08-03T00:31:11;8.32;;;2.47;;
69750;SDS011;57335;52.288;6.056;2022-08-03T00:33:39;7.55;;;2.70;;
69750;SDS011;57335;52.288;6.056;2022-08-03T00:36:25;9.25;;;2.53;;
69750;SDS011;57335;52.288;6.056;2022-08-03T00:38:53;8.82;;;2.38;;
69750;SDS011;57335;52.288;6.056;2022-08-03T00:41:20;8.88;;;2.60;;
69750;SDS011;57335;52.288;6.056;2022-08-03T00:43:47;10.52;;;2.28;;
69750;SDS011;57335;52.288;6.056;2022-08-03T00:46:14;12.45;;;2.80;;
69750;SDS011;57335;52.288;6.056;2022-08-03T00:48:50;8.35;;;2.30;;
69750;SDS011;57335;52.288;6.056;2022-08-03T00:51:17;7.20;;;2.15;;
69750;SDS011;57335;52.288;6.056;2022-08-03T00:53:48;8.32;;;2.28;;
69750;SDS011;57335;52.288;6.056;2022-08-03T00:56:16;7.75;;;2.15;;
69750;SDS011;57335;52.288;6.056;2022-08-03T00:58:43;7.97;;;2.30;;
69750;SDS011;57335;52.288;6.056;2022-08-03T01:01:10;7.63;;;2.17;;
69750;SDS011;57335;52.288;6.056;2022-08-03T01:03:38;8.27;;;2.53;;
69750;SDS011;57335;52.288;6.056;2022-08-03T01:06:06;8.18;;;2.28;;
69750;SDS011;57335;52.288;6.056;2022-08-03T01:14:33;8.68;;;2.58;;
69750;SDS011;57335;52.288;6.056;2022-08-03T01:17:20;8.73;;;2.30;;
69750;SDS011;57335;52.288;6.056;2022-08-03T01:22:47;11.25;;;2.95;;
69750;SDS011;57335;52.288;6.056;2022-08-03T01:25:35;9.00;;;2.50;;
69750;SDS011;57335;52.288;6.056;2022-08-03T01:31:20;8.40;;;2.33;;
69750;SDS011;57335;52.288;6.056;2022-08-03T01:34:02;9.85;;;2.47;;
69750;SDS011;57335;52.288;6.056;2022-08-03T01:36:42;8.48;;;2.58;;
69750;SDS011;57335;52.288;6.056;2022-08-03T01:39:14;9.30;;;3.20;;
69750;SDS011;57335;52.288;6.056;2022-08-03T01:41:52;10.48;;;2.65;;
69750;SDS011;57335;52.288;6.056;2022-08-03T01:44:27;7.15;;;2.40;;
69750;SDS011;57335;52.288;6.056;2022-08-03T01:46:59;13.55;;;2.60;;
69750;SDS011;57335;52.288;6.056;2022-08-03T01:49:27;9.13;;;2.55;;
69750;SDS011;57335;52.288;6.056;2022-08-03T01:51:57;9.20;;;2.75;;
69750;SDS011;57335;52.288;6.056;2022-08-03T01:54:34;7.57;;;2.60;;
69750;SDS011;57335;52.288;6.056;2022-08-03T01:57:03;10.88;;;3.35;;
69750;SDS011;57335;52.288;6.056;2022-08-03T01:59:31;8.73;;;2.30;;
69750;SDS011;57335;52.288;6.056;2022-08-03T02:01:59;6.03;;;2.05;;
69750;SDS011;57335;52.288;6.056;2022-08-03T02:04:48;8.73;;;2.50;;
69750;SDS011;57335;52.288;6.056;2022-08-03T02:07:17;10.02;;;3.03;;
69750;SDS011;57335;52.288;6.056;2022-08-03T02:09:46;9.02;;;2.70;;
69750;SDS011;57335;52.288;6.056;2022-08-03T02:12:18;7.53;;;2.50;;
69750;SDS011;57335;52.288;6.056;2022-08-03T02:14:47;3.50;;;1.38;;
69750;SDS011;57335;52.288;6.056;2022-08-03T02:17:15;4.38;;;1.40;;
69750;SDS011;57335;52.288;6.056;2022-08-03T02:19:42;4.13;;;1.30;;
69750;SDS011;57335;52.288;6.056;2022-08-03T02:22:10;4.60;;;1.52;;
69750;SDS011;57335;52.288;6.056;2022-08-03T02:24:38;6.63;;;1.90;;
69750;SDS011;57335;52.288;6.056;2022-08-03T02:27:05;9.35;;;2.40;;
69750;SDS011;57335;52.288;6.056;2022-08-03T02:29:40;10.02;;;2.80;;
69750;SDS011;57335;52.288;6.056;2022-08-03T02:32:11;13.30;;;3.03;;
69750;SDS011;57335;52.288;6.056;2022-08-03T02:34:43;11.45;;;2.90;;
69750;SDS011;57335;52.288;6.056;2022-08-03T02:37:12;10.38;;;3.33;;
69750;SDS011;57335;52.288;6.056;2022-08-03T02:39:40;9.55;;;3.05;;
69750;SDS011;57335;52.288;6.056;2022-08-03T02:42:09;10.63;;;3.13;;
69750;SDS011;57335;52.288;6.056;2022-08-03T02:44:39;14.25;;;3.22;;
69750;SDS011;57335;52.288;6.056;2022-08-03T02:47:08;11.07;;;3.22;;
69750;SDS011;57335;52.288;6.056;2022-08-03T02:49:37;12.73;;;3.25;;
69750;SDS011;57335;52.288;6.056;2022-08-03T02:52:17;8.52;;;2.97;;
69750;SDS011;57335;52.288;6.056;2022-08-03T02:54:46;14.55;;;4.15;;
69750;SDS011;57335;52.288;6.056;2022-08-03T02:57:16;12.68;;;3.10;;
69750;SDS011;57335;52.288;6.056;2022-08-03T02:59:43;10.90;;;3.17;;
69750;SDS011;57335;52.288;6.056;2022-08-03T03:02:11;10.48;;;3.13;;
69750;SDS011;57335;52.288;6.056;2022-08-03T03:04:38;9.68;;;2.97;;
69750;SDS011;57335;52.288;6.056;2022-08-03T03:07:25;9.90;;;2.83;;
69750;SDS011;57335;52.288;6.056;2022-08-03T03:09:54;12.40;;;2.90;;
69750;SDS011;57335;52.288;6.056;2022-08-03T03:12:21;8.93;;;2.60;;
69750;SDS011;57335;52.288;6.056;2022-08-03T03:14:48;10.88;;;2.92;;
69750;SDS011;57335;52.288;6.056;2022-08-03T03:17:15;9.00;;;2.80;;
69750;SDS011;57335;52.288;6.056;2022-08-03T03:19:42;5.82;;;2.20;;
69750;SDS011;57335;52.288;6.056;2022-08-03T03:22:10;6.22;;;1.88;;
69750;SDS011;57335;52.288;6.056;2022-08-03T03:24:38;8.27;;;2.60;;
69750;SDS011;57335;52.288;6.056;2022-08-03T03:27:06;8.85;;;2.72;;
69750;SDS011;57335;52.288;6.056;2022-08-03T03:29:33;6.90;;;1.95;;
69750;SDS011;57335;52.288;6.056;2022-08-03T03:32:04;8.38;;;2.45;;
69750;SDS011;57335;52.288;6.056;2022-08-03T03:34:37;10.13;;;2.90;;
69750;SDS011;57335;52.288;6.056;2022-08-03T03:37:04;8.35;;;2.50;;
69750;SDS011;57335;52.288;6.056;2022-08-03T03:39:31;12.63;;;3.42;;
69750;SDS011;57335;52.288;6.056;2022-08-03T03:41:58;10.80;;;3.17;;
69750;SDS011;57335;52.288;6.056;2022-08-03T03:44:26;11.10;;;3.00;;
69750;SDS011;57335;52.288;6.056;2022-08-03T03:46:54;12.68;;;3.00;;
69750;SDS011;57335;52.288;6.056;2022-08-03T03:49:22;7.45;;;2.53;;
69750;SDS011;57335;52.288;6.056;2022-08-03T03:51:53;8.75;;;3.20;;
69750;SDS011;57335;52.288;6.056;2022-08-03T03:54:20;12.85;;;3.30;;
69750;SDS011;57335;52.288;6.056;2022-08-03T03:56:52;10.23;;;3.30;;
69750;SDS011;57335;52.288;6.056;2022-08-03T03:59:30;11.18;;;3.40;;
69750;SDS011;57335;52.288;6.056;2022-08-03T04:02:00;13.68;;;3.42;;
69750;SDS011;57335;52.288;6.056;2022-08-03T04:04:29;13.35;;;3.92;;
69750;SDS011;57335;52.288;6.056;2022-08-03T04:07:00;12.68;;;3.47;;
69750;SDS011;57335;52.288;6.056;2022-08-03T04:09:26;14.90;;;3.72;;
69750;SDS011;57335;52.288;6.056;2022-08-03T04:11:53;12.38;;;3.95;;
69750;SDS011;57335;52.288;6.056;2022-08-03T04:14:32;11.43;;;4.13;;
69750;SDS011;57335;52.288;6.056;2022-08-03T04:17:01;13.52;;;4.40;;
69750;SDS011;57335;52.288;6.056;2022-08-03T04:21:59;13.10;;;3.75;;
69750;SDS011;57335;52.288;6.056;2022-08-03T04:24:32;14.00;;;4.32;;
69750;SDS011;57335;52.288;6.056;2022-08-03T04:27:01;11.07;;;4.10;;
69750;SDS011;57335;52.288;6.056;2022-08-03T04:29:29;11.90;;;4.22;;
69750;SDS011;57335;52.288;6.056;2022-08-03T04:31:59;10.40;;;3.90;;
69750;SDS011;57335;52.288;6.056;2022-08-03T04:34:28;14.18;;;4.18;;
69750;SDS011;57335;52.288;6.056;2022-08-03T04:36:56;14.00;;;4.20;;
69750;SDS011;57335;52.288;6.056;2022-08-03T04:39:28;13.32;;;3.80;;
69750;SDS011;57335;52.288;6.056;2022-08-03T04:42:00;11.75;;;3.67;;
69750;SDS011;57335;52.288;6.056;2022-08-03T04:44:37;13.00;;;3.92;;
69750;SDS011;57335;52.288;6.056;2022-08-03T04:47:06;11.30;;;3.60;;
69750;SDS011;57335;52.288;6.056;2022-08-03T04:49:33;10.85;;;3.50;;
69750;SDS011;57335;52.288;6.056;2022-08-03T04:52:01;11.13;;;3.70;;
69750;SDS011;57335;52.288;6.056;2022-08-03T04:54:29;13.00;;;3.85;;
69750;SDS011;57335;52.288;6.056;2022-08-03T04:56:56;11.35;;;3.28;;
69750;SDS011;57335;52.288;6.056;2022-08-03T04:59:22;10.15;;;3.50;;
69750;SDS011;57335;52.288;6.056;2022-08-03T05:01:49;12.68;;;3.60;;
69750;SDS011;57335;52.288;6.056;2022-08-03T05:04:15;12.10;;;3.55;;
69750;SDS011;57335;52.288;6.056;2022-08-03T05:06:41;11.77;;;3.50;;
69750;SDS011;57335;52.288;6.056;2022-08-03T05:09:13;10.75;;;3.13;;
69750;SDS011;57335;52.288;6.056;2022-08-03T05:11:39;11.85;;;3.03;;
69750;SDS011;57335;52.288;6.056;2022-08-03T05:14:06;9.07;;;3.13;;
69750;SDS011;57335;52.288;6.056;2022-08-03T05:16:32;13.02;;;3.47;;
69750;SDS011;57335;52.288;6.056;2022-08-03T05:18:59;13.30;;;3.67;;
69750;SDS011;57335;52.288;6.056;2022-08-03T05:21:25;12.10;;;3.00;;
69750;SDS011;57335;52.288;6.056;2022-08-03T05:24:12;12.43;;;3.50;;
69750;SDS011;57335;52.288;6.056;2022-08-03T05:26:38;11.20;;;3.35;;
69750;SDS011;57335;52.288;6.056;2022-08-03T05:29:04;10.68;;;3.70;;
69750;SDS011;57335;52.288;6.056;2022-08-03T05:31:31;11.30;;;3.17;;
69750;SDS011;57335;52.288;6.056;2022-08-03T05:33:57;11.95;;;3.35;;
69750;SDS011;57335;52.288;6.056;2022-08-03T05:36:24;12.18;;;3.55;;
69750;SDS011;57335;52.288;6.056;2022-08-03T05:38:50;16.10;;;3.75;;
69750;SDS011;57335;52.288;6.056;2022-08-03T05:41:17;12.45;;;3.70;;
69750;SDS011;57335;52.288;6.056;2022-08-03T05:43:49;12.00;;;3.33;;
69750;SDS011;57335;52.288;6.056;2022-08-03T05:46:20;13.68;;;3.22;;
69750;SDS011;57335;52.288;6.056;2022-08-03T05:48:47;11.57;;;3.05;;
69750;SDS011;57335;52.288;6.056;2022-08-03T05:51:13;17.75;;;3.25;;
69750;SDS011;57335;52.288;6.056;2022-08-03T05:53:40;9.70;;;2.75;;
69750;SDS011;57335;52.288;6.056;2022-08-03T05:56:08;9.80;;;2.50;;
69750;SDS011;57335;52.288;6.056;2022-08-03T05:58:41;9.30;;;2.92;;
69750;SDS011;57335;52.288;6.056;2022-08-03T06:01:08;11.10;;;2.92;;
69750;SDS011;57335;52.288;6.056;2022-08-03T06:03:35;12.70;;;3.05;;
69750;SDS011;57335;52.288;6.056;2022-08-03T06:06:01;14.27;;;2.85;;
69750;SDS011;57335;52.288;6.056;2022-08-03T06:08:27;10.35;;;2.70;;
69750;SDS011;57335;52.288;6.056;2022-08-03T06:10:54;11.25;;;3.13;;
69750;SDS011;57335;52.288;6.056;2022-08-03T06:13:20;11.40;;;2.42;;
69750;SDS011;57335;52.288;6.056;2022-08-03T06:15:47;10.98;;;2.60;;
69750;SDS011;57335;52.288;6.056;2022-08-03T06:18:13;11.07;;;2.80;;
69750;SDS011;57335;52.288;6.056;2022-08-03T06:20:39;9.82;;;2.50;;
69750;SDS011;57335;52.288;6.056;2022-08-03T06:23:06;11.02;;;2.58;;
69750;SDS011;57335;52.288;6.056;2022-08-03T06:25:41;10.63;;;2.50;;
69750;SDS011;57335;52.288;6.056;2022-08-03T06:28:08;11.63;;;2.67;;
69750;SDS011;57335;52.288;6.056;2022-08-03T06:30:44;12.05;;;2.67;;
69750;SDS011;57335;52.288;6.056;2022-08-03T06:33:11;11.00;;;2.30;;
69750;SDS011;57335;52.288;6.056;2022-08-03T06:35:37;12.55;;;2.50;;
69750;SDS011;57335;52.288;6.056;2022-08-03T06:38:07;7.78;;;2.40;;
69750;SDS011;57335;52.288;6.056;2022-08-03T06:40:34;10.10;;;2.40;;
69750;SDS011;57335;52.288;6.056;2022-08-03T06:43:01;10.25;;;2.63;;
69750;SDS011;57335;52.288;6.056;2022-08-03T06:45:28;8.32;;;2.00;;
69750;SDS011;57335;52.288;6.056;2022-08-03T06:48:04;11.35;;;2.92;;
69750;SDS011;57335;52.288;6.056;2022-08-03T06:50:35;10.20;;;2.30;;
69750;SDS011;57335;52.288;6.056;2022-08-03T06:53:03;9.00;;;2.20;;
69750;SDS011;57335;52.288;6.056;2022-08-03T06:55:30;13.18;;;2.60;;
69750;SDS011;57335;52.288;6.056;2022-08-03T06:57:57;9.88;;;2.78;;
69750;SDS011;57335;52.288;6.056;2022-08-03T07:00:28;11.23;;;2.67;;
69750;SDS011;57335;52.288;6.056;2022-08-03T07:02:55;10.05;;;2.45;;
69750;SDS011;57335;52.288;6.056;2022-08-03T07:05:23;11.15;;;2.63;;
69750;SDS011;57335;52.288;6.056;2022-08-03T07:07:53;13.00;;;2.97;;
69750;SDS011;57335;52.288;6.056;2022-08-03T07:10:20;9.13;;;2.58;;
69750;SDS011;57335;52.288;6.056;2022-08-03T07:12:46;11.52;;;2.72;;
69750;SDS011;57335;52.288;6.056;2022-08-03T07:15:22;9.30;;;2.67;;
69750;SDS011;57335;52.288;6.056;2022-08-03T07:18:09;8.75;;;2.70;;
69750;SDS011;57335;52.288;6.056;2022-08-03T07:20:36;8.77;;;2.30;;
69750;SDS011;57335;52.288;6.056;2022-08-03T07:23:02;9.60;;;2.60;;
69750;SDS011;57335;52.288;6.056;2022-08-03T07:25:29;9.05;;;2.50;;
69750;SDS011;57335;52.288;6.056;2022-08-03T07:27:55;7.30;;;2.53;;
69750;SDS011;57335;52.288;6.056;2022-08-03T07:30:23;10.68;;;2.50;;
69750;SDS011;57335;52.288;6.056;2022-08-03T07:32:49;11.45;;;2.80;;
69750;SDS011;57335;52.288;6.056;2022-08-03T07:35:16;9.52;;;2.35;;
69750;SDS011;57335;52.288;6.056;2022-08-03T07:37:50;11.75;;;2.60;;
69750;SDS011;57335;52.288;6.056;2022-08-03T07:40:20;11.75;;;2.40;;
69750;SDS011;57335;52.288;6.056;2022-08-03T07:42:46;9.85;;;2.67;;
69750;SDS011;57335;52.288;6.056;2022-08-03T07:45:17;11.10;;;2.45;;
69750;SDS011;57335;52.288;6.056;2022-08-03T07:47:43;12.10;;;2.63;;
69750;SDS011;57335;52.288;6.056;2022-08-03T07:50:18;8.18;;;2.25;;
69750;SDS011;57335;52.288;6.056;2022-08-03T07:52:45;12.90;;;2.50;;
69750;SDS011;57335;52.288;6.056;2022-08-03T07:55:11;12.20;;;2.90;;
69750;SDS011;57335;52.288;6.056;2022-08-03T07:57:38;7.63;;;2.20;;
69750;SDS011;57335;52.288;6.056;2022-08-03T08:00:05;10.40;;;2.55;;
69750;SDS011;57335;52.288;6.056;2022-08-03T08:02:37;9.00;;;2.28;;
69750;SDS011;57335;52.288;6.056;2022-08-03T08:05:04;12.68;;;2.63;;
69750;SDS011;57335;52.288;6.056;2022-08-03T08:07:31;13.45;;;2.40;;
69750;SDS011;57335;52.288;6.056;2022-08-03T08:09:58;11.68;;;2.38;;
69750;SDS011;57335;52.288;6.056;2022-08-03T08:12:24;9.13;;;2.40;;
69750;SDS011;57335;52.288;6.056;2022-08-03T08:14:50;11.25;;;2.20;;
69750;SDS011;57335;52.288;6.056;2022-08-03T08:17:17;13.63;;;2.35;;
69750;SDS011;57335;52.288;6.056;2022-08-03T08:19:44;11.25;;;2.45;;
69750;SDS011;57335;52.288;6.056;2022-08-03T08:22:17;9.88;;;2.20;;
69750;SDS011;57335;52.288;6.056;2022-08-03T08:24:53;12.82;;;2.42;;
69750;SDS011;57335;52.288;6.056;2022-08-03T08:27:20;10.38;;;1.88;;
69750;SDS011;57335;52.288;6.056;2022-08-03T08:29:46;9.13;;;1.98;;
69750;SDS011;57335;52.288;6.056;2022-08-03T08:32:22;10.73;;;2.47;;
69750;SDS011;57335;52.288;6.056;2022-08-03T08:34:49;10.70;;;2.10;;
69750;SDS011;57335;52.288;6.056;2022-08-03T08:37:15;9.13;;;2.25;;
69750;SDS011;57335;52.288;6.056;2022-08-03T08:39:41;9.27;;;2.10;;
69750;SDS011;57335;52.288;6.056;2022-08-03T08:42:08;9.07;;;1.88;;
69750;SDS011;57335;52.288;6.056;2022-08-03T08:44:35;10.02;;;2.35;;
69750;SDS011;57335;52.288;6.056;2022-08-03T08:47:01;9.43;;;1.75;;
69750;SDS011;57335;52.288;6.056;2022-08-03T08:49:29;10.00;;;2.30;;
69750;SDS011;57335;52.288;6.056;2022-08-03T08:51:58;11.43;;;2.03;;
69750;SDS011;57335;52.288;6.056;2022-08-03T08:54:26;9.90;;;2.00;;
69750;SDS011;57335;52.288;6.056;2022-08-03T08:56:54;10.13;;;1.90;;
69750;SDS011;57335;52.288;6.056;2022-08-03T08:59:23;8.80;;;2.00;;
69750;SDS011;57335;52.288;6.056;2022-08-03T09:01:50;9.65;;;2.05;;
69750;SDS011;57335;52.288;6.056;2022-08-03T09:04:22;8.43;;;1.88;;
69750;SDS011;57335;52.288;6.056;2022-08-03T09:06:48;9.02;;;1.88;;
69750;SDS011;57335;52.288;6.056;2022-08-03T09:09:35;8.48;;;1.90;;
69750;SDS011;57335;52.288;6.056;2022-08-03T09:12:22;6.80;;;1.85;;
69750;SDS011;57335;52.288;6.056;2022-08-03T09:17:50;8.52;;;1.75;;
69750;SDS011;57335;52.288;6.056;2022-08-03T09:20:18;11.60;;;2.15;;
69750;SDS011;57335;52.288;6.056;2022-08-03T09:23:00;12.15;;;2.85;;
69750;SDS011;57335;52.288;6.056;2022-08-03T09:28:10;13.13;;;2.40;;
69750;SDS011;57335;52.288;6.056;2022-08-03T09:31:00;12.02;;;2.42;;
69750;SDS011;57335;52.288;6.056;2022-08-03T09:33:26;13.27;;;2.33;;
69750;SDS011;57335;52.288;6.056;2022-08-03T09:36:01;15.75;;;2.65;;
69750;SDS011;57335;52.288;6.056;2022-08-03T09:38:27;12.13;;;2.30;;
69750;SDS011;57335;52.288;6.056;2022-08-03T09:40:54;12.35;;;2.72;;
69750;SDS011;57335;52.288;6.056;2022-08-03T09:43:25;13.10;;;2.70;;
69750;SDS011;57335;52.288;6.056;2022-08-03T09:46:00;14.48;;;2.47;;
69750;SDS011;57335;52.288;6.056;2022-08-03T09:48:30;11.13;;;2.30;;
69750;SDS011;57335;52.288;6.056;2022-08-03T09:50:58;17.02;;;2.83;;
69750;SDS011;57335;52.288;6.056;2022-08-03T09:53:46;14.50;;;2.72;;
69750;SDS011;57335;52.288;6.056;2022-08-03T09:56:36;14.13;;;2.90;;
69750;SDS011;57335;52.288;6.056;2022-08-03T09:59:06;12.75;;;2.60;;
69750;SDS011;57335;52.288;6.056;2022-08-03T10:01:34;16.73;;;2.60;;
69750;SDS011;57335;52.288;6.056;2022-08-03T10:04:01;13.23;;;2.40;;
69750;SDS011;57335;52.288;6.056;2022-08-03T10:06:30;10.18;;;2.40;;
69750;SDS011;57335;52.288;6.056;2022-08-03T10:09:04;14.77;;;2.70;;
69750;SDS011;57335;52.288;6.056;2022-08-03T10:11:32;13.02;;;2.65;;
69750;SDS011;57335;52.288;6.056;2022-08-03T10:14:07;15.63;;;2.53;;
69750;SDS011;57335;52.288;6.056;2022-08-03T10:16:36;13.73;;;2.30;;
69750;SDS011;57335;52.288;6.056;2022-08-03T10:19:07;11.90;;;2.38;;
69750;SDS011;57335;52.288;6.056;2022-08-03T10:21:34;12.32;;;2.40;;
69750;SDS011;57335;52.288;6.056;2022-08-03T10:24:04;13.57;;;2.70;;
69750;SDS011;57335;52.288;6.056;2022-08-03T10:26:33;11.68;;;2.40;;
69750;SDS011;57335;52.288;6.056;2022-08-03T10:29:04;13.15;;;2.20;;
69750;SDS011;57335;52.288;6.056;2022-08-03T10:31:38;12.57;;;2.70;;
69750;SDS011;57335;52.288;6.056;2022-08-03T10:34:25;13.48;;;2.47;;
69750;SDS011;57335;52.288;6.056;2022-08-03T10:36:55;18.75;;;3.22;;
69750;SDS011;57335;52.288;6.056;2022-08-03T10:39:26;15.25;;;2.25;;
69750;SDS011;57335;52.288;6.056;2022-08-03T10:41:54;14.43;;;2.30;;
69750;SDS011;57335;52.288;6.056;2022-08-03T10:44:22;15.32;;;2.78;;
69750;SDS011;57335;52.288;6.056;2022-08-03T10:46:50;12.32;;;2.63;;
69750;SDS011;57335;52.288;6.056;2022-08-03T10:49:18;12.13;;;2.38;;
69750;SDS011;57335;52.288;6.056;2022-08-03T10:52:00;11.90;;;2.22;;
69750;SDS011;57335;52.288;6.056;2022-08-03T10:54:37;10.57;;;2.17;;
69750;SDS011;57335;52.288;6.056;2022-08-03T10:57:05;16.17;;;2.45;;
69750;SDS011;57335;52.288;6.056;2022-08-03T11:02:12;12.38;;;2.30;;
69750;SDS011;57335;52.288;6.056;2022-08-03T11:04:40;11.57;;;2.03;;
69750;SDS011;57335;52.288;6.056;2022-08-03T11:07:20;12.35;;;2.30;;
69750;SDS011;57335;52.288;6.056;2022-08-03T11:09:50;13.85;;;2.42;;
69750;SDS011;57335;52.288;6.056;2022-08-03T11:12:32;11.07;;;2.38;;
69750;SDS011;57335;52.288;6.056;2022-08-03T11:15:00;11.45;;;2.10;;
69750;SDS011;57335;52.288;6.056;2022-08-03T11:17:28;8.40;;;2.22;;
69750;SDS011;57335;52.288;6.056;2022-08-03T11:19:55;11.68;;;2.53;;
69750;SDS011;57335;52.288;6.056;2022-08-03T11:22:23;9.88;;;2.20;;
69750;SDS011;57335;52.288;6.056;2022-08-03T11:27:18;13.73;;;2.33;;
69750;SDS011;57335;52.288;6.056;2022-08-03T11:29:55;11.07;;;2.00;;
69750;SDS011;57335;52.288;6.056;2022-08-03T11:35:17;10.77;;;2.03;;
69750;SDS011;57335;52.288;6.056;2022-08-03T11:45:59;10.55;;;2.10;;
69750;SDS011;57335;52.288;6.056;2022-08-03T11:51:06;9.10;;;1.80;;
69750;SDS011;57335;52.288;6.056;2022-08-03T11:53:44;9.13;;;1.65;;
69750;SDS011;57335;52.288;6.056;2022-08-03T11:56:10;11.52;;;2.30;;
69750;SDS011;57335;52.288;6.056;2022-08-03T11:58:45;11.45;;;2.03;;
69750;SDS011;57335;52.288;6.056;2022-08-03T12:01:35;9.90;;;2.17;;
69750;SDS011;57335;52.288;6.056;2022-08-03T12:04:03;10.00;;;2.10;;
69750;SDS011;57335;52.288;6.056;2022-08-03T12:06:30;9.70;;;1.90;;
69750;SDS011;57335;52.288;6.056;2022-08-03T12:08:56;11.23;;;2.10;;
69750;SDS011;57335;52.288;6.056;2022-08-03T12:11:23;8.43;;;1.90;;
69750;SDS011;57335;52.288;6.056;2022-08-03T12:13:49;9.15;;;1.80;;
69750;SDS011;57335;52.288;6.056;2022-08-03T12:16:35;15.32;;;2.13;;
69750;SDS011;57335;52.288;6.056;2022-08-03T12:19:03;8.88;;;1.88;;
69750;SDS011;57335;52.288;6.056;2022-08-03T12:21:30;11.43;;;1.90;;
69750;SDS011;57335;52.288;6.056;2022-08-03T12:24:01;10.85;;;2.05;;
69750;SDS011;57335;52.288;6.056;2022-08-03T12:26:29;9.75;;;1.80;;
69750;SDS011;57335;52.288;6.056;2022-08-03T12:29:24;11.02;;;1.77;;
69750;SDS011;57335;52.288;6.056;2022-08-03T12:31:51;7.50;;;1.70;;
69750;SDS011;57335;52.288;6.056;2022-08-03T12:34:17;8.70;;;1.80;;
69750;SDS011;57335;52.288;6.056;2022-08-03T12:36:51;10.93;;;1.90;;
69750;SDS011;57335;52.288;6.056;2022-08-03T12:39:22;7.93;;;1.85;;
69750;SDS011;57335;52.288;6.056;2022-08-03T12:44:27;7.78;;;1.90;;
69750;SDS011;57335;52.288;6.056;2022-08-03T12:46:58;6.13;;;1.40;;
69750;SDS011;57335;52.288;6.056;2022-08-03T12:49:25;11.00;;;1.67;;
69750;SDS011;57335;52.288;6.056;2022-08-03T12:54:19;6.50;;;1.50;;
69750;SDS011;57335;52.288;6.056;2022-08-03T12:59:41;8.40;;;1.75;;
69750;SDS011;57335;52.288;6.056;2022-08-03T13:02:22;8.95;;;1.65;;
69750;SDS011;57335;52.288;6.056;2022-08-03T13:04:52;11.40;;;1.80;;
69750;SDS011;57335;52.288;6.056;2022-08-03T13:07:19;12.38;;;2.30;;
69750;SDS011;57335;52.288;6.056;2022-08-03T13:09:50;8.05;;;1.67;;
69750;SDS011;57335;52.288;6.056;2022-08-03T13:12:19;9.82;;;1.80;;
69750;SDS011;57335;52.288;6.056;2022-08-03T13:14:47;9.75;;;1.60;;
69750;SDS011;57335;52.288;6.056;2022-08-03T13:17:17;7.75;;;1.60;;
69750;SDS011;57335;52.288;6.056;2022-08-03T13:19:44;8.35;;;1.80;;
69750;SDS011;57335;52.288;6.056;2022-08-03T13:22:18;8.63;;;1.83;;
69750;SDS011;57335;52.288;6.056;2022-08-03T13:24:52;7.32;;;1.42;;
69750;SDS011;57335;52.288;6.056;2022-08-03T13:27:20;8.77;;;1.90;;
69750;SDS011;57335;52.288;6.056;2022-08-03T13:30:07;10.63;;;1.65;;
69750;SDS011;57335;52.288;6.056;2022-08-03T13:32:34;8.23;;;1.70;;
69750;SDS011;57335;52.288;6.056;2022-08-03T13:35:01;9.75;;;2.00;;
69750;SDS011;57335;52.288;6.056;2022-08-03T13:37:27;8.45;;;1.95;;
69750;SDS011;57335;52.288;6.056;2022-08-03T13:39:55;8.95;;;1.73;;
69750;SDS011;57335;52.288;6.056;2022-08-03T13:42:25;7.10;;;1.77;;
69750;SDS011;57335;52.288;6.056;2022-08-03T13:44:52;10.40;;;1.83;;
69750;SDS011;57335;52.288;6.056;2022-08-03T13:47:19;8.05;;;1.60;;
69750;SDS011;57335;52.288;6.056;2022-08-03T13:49:46;6.60;;;1.50;;
69750;SDS011;57335;52.288;6.056;2022-08-03T13:52:27;7.53;;;1.70;;
69750;SDS011;57335;52.288;6.056;2022-08-03T13:55:03;8.35;;;1.27;;
69750;SDS011;57335;52.288;6.056;2022-08-03T13:57:31;8.02;;;1.70;;
69750;SDS011;57335;52.288;6.056;2022-08-03T14:00:18;8.93;;;1.42;;
69750;SDS011;57335;52.288;6.056;2022-08-03T14:02:54;6.40;;;1.55;;
69750;SDS011;57335;52.288;6.056;2022-08-03T14:05:29;10.02;;;1.60;;
69750;SDS011;57335;52.288;6.056;2022-08-03T14:07:57;7.25;;;1.50;;
69750;SDS011;57335;52.288;6.056;2022-08-03T14:10:30;6.47;;;1.60;;
69750;SDS011;57335;52.288;6.056;2022-08-03T14:12:56;7.93;;;1.77;;
69750;SDS011;57335;52.288;6.056;2022-08-03T14:15:23;5.35;;;1.60;;
69750;SDS011;57335;52.288;6.056;2022-08-03T14:17:49;8.75;;;1.60;;
69750;SDS011;57335;52.288;6.056;2022-08-03T14:20:16;6.10;;;1.38;;
69750;SDS011;57335;52.288;6.056;2022-08-03T14:23:02;6.80;;;1.60;;
69750;SDS011;57335;52.288;6.056;2022-08-03T14:25:29;6.28;;;1.50;;
69750;SDS011;57335;52.288;6.056;2022-08-03T14:28:08;7.78;;;1.52;;
69750;SDS011;57335;52.288;6.056;2022-08-03T14:30:34;6.13;;;1.73;;
69750;SDS011;57335;52.288;6.056;2022-08-03T14:33:01;6.28;;;1.50;;
69750;SDS011;57335;52.288;6.056;2022-08-03T14:35:28;5.68;;;1.70;;
69750;SDS011;57335;52.288;6.056;2022-08-03T14:37:54;6.75;;;1.70;;
69750;SDS011;57335;52.288;6.056;2022-08-03T14:40:21;5.18;;;1.75;;
69750;SDS011;57335;52.288;6.056;2022-08-03T14:42:47;4.50;;;1.42;;
69750;SDS011;57335;52.288;6.056;2022-08-03T14:45:14;6.55;;;1.90;;
69750;SDS011;57335;52.288;6.056;2022-08-03T14:47:45;5.93;;;1.67;;
69750;SDS011;57335;52.288;6.056;2022-08-03T14:50:32;4.80;;;1.50;;
69750;SDS011;57335;52.288;6.056;2022-08-03T14:53:10;5.00;;;1.75;;
69750;SDS011;57335;52.288;6.056;2022-08-03T14:55:37;5.68;;;1.83;;
69750;SDS011;57335;52.288;6.056;2022-08-03T14:58:16;3.97;;;1.60;;
69750;SDS011;57335;52.288;6.056;2022-08-03T15:00:46;7.55;;;1.83;;
69750;SDS011;57335;52.288;6.056;2022-08-03T15:03:13;8.48;;;2.03;;
69750;SDS011;57335;52.288;6.056;2022-08-03T15:05:42;5.57;;;1.83;;
69750;SDS011;57335;52.288;6.056;2022-08-03T15:08:09;7.45;;;1.88;;
69750;SDS011;57335;52.288;6.056;2022-08-03T15:10:35;5.20;;;1.85;;
69750;SDS011;57335;52.288;6.056;2022-08-03T15:13:11;5.68;;;1.92;;
69750;SDS011;57335;52.288;6.056;2022-08-03T15:15:38;5.55;;;2.20;;
69750;SDS011;57335;52.288;6.056;2022-08-03T15:18:04;5.30;;;2.10;;
69750;SDS011;57335;52.288;6.056;2022-08-03T15:20:31;5.65;;;1.92;;
69750;SDS011;57335;52.288;6.056;2022-08-03T15:23:10;4.88;;;1.80;;
69750;SDS011;57335;52.288;6.056;2022-08-03T15:25:37;6.35;;;2.10;;
69750;SDS011;57335;52.288;6.056;2022-08-03T15:28:23;5.15;;;1.90;;
69750;SDS011;57335;52.288;6.056;2022-08-03T15:30:56;5.40;;;2.15;;
69750;SDS011;57335;52.288;6.056;2022-08-03T15:33:22;6.93;;;2.30;;
69750;SDS011;57335;52.288;6.056;2022-08-03T15:35:48;6.93;;;2.10;;
69750;SDS011;57335;52.288;6.056;2022-08-03T15:38:15;5.43;;;2.08;;
69750;SDS011;57335;52.288;6.056;2022-08-03T15:40:42;5.72;;;1.90;;
69750;SDS011;57335;52.288;6.056;2022-08-03T15:43:08;5.25;;;2.10;;
69750;SDS011;57335;52.288;6.056;2022-08-03T15:45:35;6.85;;;2.08;;